sensor_id;sensor_type;location;lat;lon;timestamp;pressure;altitude;pressure_sealevel;temperature
30001;BMP280;16845;48.670;9.000;2023-11-21T00:02:00;94909.16;;;10.06
30001;BMP280;16845;48.670;9.000;2023-11-21T00:04:28;94906.75;;;10.03
30001;BMP280;16845;48.670;9.000;2023-11-21T00:06:55;94904.09;;;10.07
30001;BMP280;16845;48.670;9.000;2023-11-21T00:09:21;94905.78;;;10.07
30001;BMP280;16845;48.670;9.000;2023-11-21T00:11:48;94903.13;;;10.10
30001;BMP280;16845;48.670;9.000;2023-11-21T00:14:14;94905.94;;;10.02
30001;BMP280;16845;48.670;9.000;2023-11-21T00:16:41;94909.09;;;10.07
30001;BMP280;16845;48.670;9.000;2023-11-21T00:19:08;94902.31;;;9.86
30001;BMP280;16845;48.670;9.000;2023-11-21T00:21:36;94900.28;;;9.96
30001;BMP280;16845;48.670;9.000;2023-11-21T00:24:02;94894.66;;;9.91
30001;BMP280;16845;48.670;9.000;2023-11-21T00:26:29;94905.72;;;9.85
30001;BMP280;16845;48.670;9.000;2023-11-21T00:28:55;94908.81;;;9.92
30001;BMP280;16845;48.670;9.000;2023-11-21T00:31:22;94899.00;;;9.86
30001;BMP280;16845;48.670;9.000;2023-11-21T00:33:48;94895.53;;;9.90
30001;BMP280;16845;48.670;9.000;2023-11-21T00:36:15;94902.09;;;9.92
30001;BMP280;16845;48.670;9.000;2023-11-21T00:38:43;94909.41;;;9.98
30001;BMP280;16845;48.670;9.000;2023-11-21T00:41:09;94916.53;;;9.86
30001;BMP280;16845;48.670;9.000;2023-11-21T00:43:36;94895.59;;;9.87
30001;BMP280;16845;48.670;9.000;2023-11-21T00:46:04;94897.28;;;9.88
30001;BMP280;16845;48.670;9.000;2023-11-21T00:48:30;94896.47;;;9.86
30001;BMP280;16845;48.670;9.000;2023-11-21T00:50:57;94906.06;;;9.75
30001;BMP280;16845;48.670;9.000;2023-11-21T00:53:23;94893.50;;;9.76
30001;BMP280;16845;48.670;9.000;2023-11-21T00:55:51;94901.28;;;9.92
30001;BMP280;16845;48.670;9.000;2023-11-21T00:58:18;94905.16;;;9.77
30001;BMP280;16845;48.670;9.000;2023-11-21T01:00:44;94906.19;;;9.72
30001;BMP280;16845;48.670;9.000;2023-11-21T01:03:11;94901.50;;;9.63
30001;BMP280;16845;48.670;9.000;2023-11-21T01:05:38;94898.66;;;9.72
30001;BMP280;16845;48.670;9.000;2023-11-21T01:08:04;94896.44;;;9.64
30001;BMP280;16845;48.670;9.000;2023-11-21T01:10:31;94893.88;;;9.43
30001;BMP280;16845;48.670;9.000;2023-11-21T01:12:59;94893.88;;;9.43
30001;BMP280;16845;48.670;9.000;2023-11-21T01:15:25;94883.22;;;9.36
30001;BMP280;16845;48.670;9.000;2023-11-21T01:17:52;94887.56;;;9.33
30001;BMP280;16845;48.670;9.000;2023-11-21T01:20:18;94890.22;;;9.28
30001;BMP280;16845;48.670;9.000;2023-11-21T01:22:45;94888.94;;;9.64
30001;BMP280;16845;48.670;9.000;2023-11-21T01:25:12;94891.81;;;9.54
30001;BMP280;16845;48.670;9.000;2023-11-21T01:27:38;94892.91;;;9.47
30001;BMP280;16845;48.670;9.000;2023-11-21T01:30:07;94893.59;;;9.50
30001;BMP280;16845;48.670;9.000;2023-11-21T01:32:34;94902.88;;;9.48
30001;BMP280;16845;48.670;9.000;2023-11-21T01:35:00;94899.97;;;9.59
30001;BMP280;16845;48.670;9.000;2023-11-21T01:37:27;94897.44;;;9.60
30001;BMP280;16845;48.670;9.000;2023-11-21T01:39:54;94894.53;;;9.71
30001;BMP280;16845;48.670;9.000;2023-11-21T01:42:20;94887.94;;;9.45
30001;BMP280;16845;48.670;9.000;2023-11-21T01:44:47;94885.13;;;9.77
30001;BMP280;16845;48.670;9.000;2023-11-21T01:47:15;94888.81;;;9.44
30001;BMP280;16845;48.670;9.000;2023-11-21T01:49:43;94885.81;;;9.35
30001;BMP280;16845;48.670;9.000;2023-11-21T01:52:11;94877.72;;;9.27
30001;BMP280;16845;48.670;9.000;2023-11-21T01:54:37;94883.06;;;9.41
30001;BMP280;16845;48.670;9.000;2023-11-21T01:57:05;94884.16;;;9.34
30001;BMP280;16845;48.670;9.000;2023-11-21T01:59:34;94877.34;;;9.15
30001;BMP280;16845;48.670;9.000;2023-11-21T02:02:01;94882.31;;;9.39
30001;BMP280;16845;48.670;9.000;2023-11-21T02:04:29;94883.22;;;9.36
30001;BMP280;16845;48.670;9.000;2023-11-21T02:06:56;94884.16;;;9.34
30001;BMP280;16845;48.670;9.000;2023-11-21T02:09:24;94885.19;;;9.28
30001;BMP280;16845;48.670;9.000;2023-11-21T02:11:51;94890.09;;;9.31
30001;BMP280;16845;48.670;9.000;2023-11-21T02:14:19;94892.44;;;9.12
30001;BMP280;16845;48.670;9.000;2023-11-21T02:16:45;94888.50;;;9.29
30001;BMP280;16845;48.670;9.000;2023-11-21T02:19:13;94896.34;;;9.20
30001;BMP280;16845;48.670;9.000;2023-11-21T02:21:46;94886.22;;;9.23
30001;BMP280;16845;48.670;9.000;2023-11-21T02:24:14;94884.28;;;9.31
30001;BMP280;16845;48.670;9.000;2023-11-21T02:26:41;94883.72;;;9.23
30001;BMP280;16845;48.670;9.000;2023-11-21T02:29:07;94883.13;;;9.17
30001;BMP280;16845;48.670;9.000;2023-11-21T02:31:34;94883.56;;;9.27
30001;BMP280;16845;48.670;9.000;2023-11-21T02:34:00;94883.91;;;9.41
30001;BMP280;16845;48.670;9.000;2023-11-21T02:36:27;94882.72;;;9.27
30001;BMP280;16845;48.670;9.000;2023-11-21T02:38:53;94888.09;;;9.41
30001;BMP280;16845;48.670;9.000;2023-11-21T02:41:21;94880.69;;;9.38
30001;BMP280;16845;48.670;9.000;2023-11-21T02:43:48;94873.19;;;8.89
30001;BMP280;16845;48.670;9.000;2023-11-21T02:46:14;94865.97;;;9.29
30001;BMP280;16845;48.670;9.000;2023-11-21T02:48:41;94869.34;;;9.28
30001;BMP280;16845;48.670;9.000;2023-11-21T02:51:07;94865.97;;;9.29
30001;BMP280;16845;48.670;9.000;2023-11-21T02:53:34;94867.59;;;9.30
30001;BMP280;16845;48.670;9.000;2023-11-21T02:56:00;94871.22;;;9.46
30001;BMP280;16845;48.670;9.000;2023-11-21T02:58:28;94872.53;;;9.56
30001;BMP280;16845;48.670;9.000;2023-11-21T03:00:55;94864.78;;;9.39
30001;BMP280;16845;48.670;9.000;2023-11-21T03:03:21;94867.19;;;9.42
30001;BMP280;16845;48.670;9.000;2023-11-21T03:05:48;94870.47;;;9.44
30001;BMP280;16845;48.670;9.000;2023-11-21T03:08:15;94875.38;;;9.47
30001;BMP280;16845;48.670;9.000;2023-11-21T03:10:41;94864.25;;;9.31
30001;BMP280;16845;48.670;9.000;2023-11-21T03:13:08;94861.19;;;9.23
30001;BMP280;16845;48.670;9.000;2023-11-21T03:15:36;94866.34;;;9.43
30001;BMP280;16845;48.670;9.000;2023-11-21T03:18:02;94862.81;;;9.24
30001;BMP280;16845;48.670;9.000;2023-11-21T03:20:32;94862.88;;;9.23
30001;BMP280;16845;48.670;9.000;2023-11-21T03:22:58;94858.88;;;9.17
30001;BMP280;16845;48.670;9.000;2023-11-21T03:25:25;94859.44;;;9.25
30001;BMP280;16845;48.670;9.000;2023-11-21T03:27:52;94861.69;;;9.32
30001;BMP280;16845;48.670;9.000;2023-11-21T03:30:18;94862.50;;;9.33
30001;BMP280;16845;48.670;9.000;2023-11-21T03:32:46;94871.88;;;9.04
30001;BMP280;16845;48.670;9.000;2023-11-21T03:35:13;94878.78;;;8.97
30001;BMP280;16845;48.670;9.000;2023-11-21T03:37:39;94868.91;;;9.17
30001;BMP280;16845;48.670;9.000;2023-11-21T03:40:08;94870.53;;;9.18
30001;BMP280;16845;48.670;9.000;2023-11-21T03:42:35;94867.34;;;9.15
30001;BMP280;16845;48.670;9.000;2023-11-21T03:45:02;94877.63;;;9.30
30001;BMP280;16845;48.670;9.000;2023-11-21T03:47:28;94873.22;;;9.36
30001;BMP280;16845;48.670;9.000;2023-11-21T03:49:56;94881.72;;;9.32
30001;BMP280;16845;48.670;9.000;2023-11-21T03:52:23;94883.16;;;9.15
30001;BMP280;16845;48.670;9.000;2023-11-21T03:54:50;94879.34;;;9.28
30001;BMP280;16845;48.670;9.000;2023-11-21T03:57:16;94881.72;;;9.32
30001;BMP280;16845;48.670;9.000;2023-11-21T03:59:43;94883.03;;;9.18
30001;BMP280;16845;48.670;9.000;2023-11-21T04:02:10;94888.34;;;9.33
30001;BMP280;16845;48.670;9.000;2023-11-21T04:04:36;94886.09;;;9.26
30001;BMP280;16845;48.670;9.000;2023-11-21T04:07:05;94887.75;;;9.27
30001;BMP280;16845;48.670;9.000;2023-11-21T04:09:31;94885.13;;;9.30
30001;BMP280;16845;48.670;9.000;2023-11-21T04:11:58;94889.03;;;9.14
30001;BMP280;16845;48.670;9.000;2023-11-21T04:14:24;94900.09;;;9.07
30001;BMP280;16845;48.670;9.000;2023-11-21T04:16:51;94897.00;;;9.25
30001;BMP280;16845;48.670;9.000;2023-11-21T04:19:18;94893.31;;;9.35
30001;BMP280;16845;48.670;9.000;2023-11-21T04:21:44;94894.72;;;9.42
30001;BMP280;16845;48.670;9.000;2023-11-21T04:24:12;94894.19;;;9.34
30001;BMP280;16845;48.670;9.000;2023-11-21T04:26:39;94891.16;;;9.49
30001;BMP280;16845;48.670;9.000;2023-11-21T04:29:05;94894.78;;;9.40
30001;BMP280;16845;48.670;9.000;2023-11-21T04:31:32;94892.66;;;9.53
30001;BMP280;16845;48.670;9.000;2023-11-21T04:33:59;94898.78;;;9.46
30001;BMP280;16845;48.670;9.000;2023-11-21T04:36:25;94898.53;;;9.52
30001;BMP280;16845;48.670;9.000;2023-11-21T04:38:52;94900.38;;;9.24
30001;BMP280;16845;48.670;9.000;2023-11-21T04:41:20;94898.78;;;9.22
30001;BMP280;16845;48.670;9.000;2023-11-21T04:43:46;94905.88;;;9.33
30001;BMP280;16845;48.670;9.000;2023-11-21T04:46:13;94912.66;;;9.30
30001;BMP280;16845;48.670;9.000;2023-11-21T04:48:40;94907.66;;;9.30
30001;BMP280;16845;48.670;9.000;2023-11-21T04:51:06;94905.25;;;9.27
30001;BMP280;16845;48.670;9.000;2023-11-21T04:53:33;94912.66;;;9.30
30001;BMP280;16845;48.670;9.000;2023-11-21T04:55:59;94913.28;;;9.36
30001;BMP280;16845;48.670;9.000;2023-11-21T04:58:27;94914.53;;;9.49
30001;BMP280;16845;48.670;9.000;2023-11-21T05:00:54;94911.03;;;9.53
30001;BMP280;16845;48.670;9.000;2023-11-21T05:03:20;94917.19;;;9.45
30001;BMP280;16845;48.670;9.000;2023-11-21T05:05:47;94911.28;;;9.22
30001;BMP280;16845;48.670;9.000;2023-11-21T05:08:13;94913.00;;;9.21
30001;BMP280;16845;48.670;9.000;2023-11-21T05:10:40;94910.38;;;9.48
30001;BMP280;16845;48.670;9.000;2023-11-21T05:13:06;94911.75;;;9.57
30001;BMP280;16845;48.670;9.000;2023-11-21T05:15:34;94919.72;;;9.43
30001;BMP280;16845;48.670;9.000;2023-11-21T05:18:01;94921.34;;;9.44
30001;BMP280;16845;48.670;9.000;2023-11-21T05:20:28;94915.25;;;9.28
30001;BMP280;16845;48.670;9.000;2023-11-21T05:22:54;94920.94;;;9.08
30001;BMP280;16845;48.670;9.000;2023-11-21T05:25:21;94926.47;;;9.17
30001;BMP280;16845;48.670;9.000;2023-11-21T05:27:48;94923.41;;;9.09
30001;BMP280;16845;48.670;9.000;2023-11-21T05:30:14;94930.63;;;8.92
30001;BMP280;16845;48.670;9.000;2023-11-21T05:32:42;94929.84;;;8.92
30001;BMP280;16845;48.670;9.000;2023-11-21T05:35:09;94936.69;;;8.85
30001;BMP280;16845;48.670;9.000;2023-11-21T05:37:35;94939.63;;;8.72
30001;BMP280;16845;48.670;9.000;2023-11-21T05:40:02;94935.53;;;8.95
30001;BMP280;16845;48.670;9.000;2023-11-21T05:42:29;94934.09;;;8.88
30001;BMP280;16845;48.670;9.000;2023-11-21T05:44:55;94941.78;;;9.08
30001;BMP280;16845;48.670;9.000;2023-11-21T05:47:22;94939.00;;;8.91
30001;BMP280;16845;48.670;9.000;2023-11-21T05:49:50;94935.28;;;9.03
30001;BMP280;16845;48.670;9.000;2023-11-21T05:52:17;94931.88;;;9.05
30001;BMP280;16845;48.670;9.000;2023-11-21T05:54:44;94930.63;;;8.92
30001;BMP280;16845;48.670;9.000;2023-11-21T05:57:10;94938.25;;;8.89
30001;BMP280;16845;48.670;9.000;2023-11-21T05:59:37;94933.59;;;9.03
30001;BMP280;16845;48.670;9.000;2023-11-21T06:02:03;94940.88;;;9.11
30001;BMP280;16845;48.670;9.000;2023-11-21T06:04:30;94940.69;;;9.17
30001;BMP280;16845;48.670;9.000;2023-11-21T06:06:58;94938.03;;;9.21
30001;BMP280;16845;48.670;9.000;2023-11-21T06:09:24;94938.81;;;9.22
30001;BMP280;16845;48.670;9.000;2023-11-21T06:11:51;94948.44;;;9.09
30001;BMP280;16845;48.670;9.000;2023-11-21T06:14:17;94954.53;;;9.01
30001;BMP280;16845;48.670;9.000;2023-11-21T06:16:44;94953.41;;;8.85
30001;BMP280;16845;48.670;9.000;2023-11-21T06:19:11;94959.41;;;8.79
30001;BMP280;16845;48.670;9.000;2023-11-21T06:21:37;94960.22;;;8.80
30001;BMP280;16845;48.670;9.000;2023-11-21T06:24:06;94957.81;;;9.03
30001;BMP280;16845;48.670;9.000;2023-11-21T06:26:32;94961.03;;;9.06
30001;BMP280;16845;48.670;9.000;2023-11-21T06:28:59;94961.28;;;8.99
30001;BMP280;16845;48.670;9.000;2023-11-21T06:31:26;94970.88;;;8.86
30001;BMP280;16845;48.670;9.000;2023-11-21T06:33:52;94962.47;;;9.13
30001;BMP280;16845;48.670;9.000;2023-11-21T06:36:19;94971.81;;;9.08
30001;BMP280;16845;48.670;9.000;2023-11-21T06:38:45;94974.28;;;9.10
30001;BMP280;16845;48.670;9.000;2023-11-21T06:41:13;94968.97;;;9.19
30001;BMP280;16845;48.670;9.000;2023-11-21T06:43:40;94976.81;;;9.08
30001;BMP280;16845;48.670;9.000;2023-11-21T06:46:07;94981.28;;;9.24
30001;BMP280;16845;48.670;9.000;2023-11-21T06:48:33;94984.38;;;9.07
30001;BMP280;16845;48.670;9.000;2023-11-21T06:51:00;94991.41;;;9.22
30001;BMP280;16845;48.670;9.000;2023-11-21T06:53:26;94995.31;;;9.04
30001;BMP280;16845;48.670;9.000;2023-11-21T06:55:53;94995.78;;;9.15
30001;BMP280;16845;48.670;9.000;2023-11-21T06:58:21;95001.75;;;9.37
30001;BMP280;16845;48.670;9.000;2023-11-21T07:00:47;94996.88;;;9.32
30001;BMP280;16845;48.670;9.000;2023-11-21T07:03:14;95001.16;;;9.29
30001;BMP280;16845;48.670;9.000;2023-11-21T07:05:41;95005.63;;;9.21
30001;BMP280;16845;48.670;9.000;2023-11-21T07:08:07;95008.13;;;9.21
30001;BMP280;16845;48.670;9.000;2023-11-21T07:10:35;95010.41;;;9.27
30001;BMP280;16845;48.670;9.000;2023-11-21T07:13:01;95017.50;;;9.15
30001;BMP280;16845;48.670;9.000;2023-11-21T07:15:29;95018.41;;;9.38
30001;BMP280;16845;48.670;9.000;2023-11-21T07:17:56;95012.72;;;9.33
30001;BMP280;16845;48.670;9.000;2023-11-21T07:20:22;95012.72;;;9.33
30001;BMP280;16845;48.670;9.000;2023-11-21T07:22:49;95023.88;;;9.49
30001;BMP280;16845;48.670;9.000;2023-11-21T07:25:15;95020.09;;;9.37
30001;BMP280;16845;48.670;9.000;2023-11-21T07:27:42;95022.03;;;9.29
30001;BMP280;16845;48.670;9.000;2023-11-21T07:30:10;95033.69;;;9.29
30001;BMP280;16845;48.670;9.000;2023-11-21T07:32:38;95024.38;;;9.34
30001;BMP280;16845;48.670;9.000;2023-11-21T07:35:05;95028.78;;;9.52
30001;BMP280;16845;48.670;9.000;2023-11-21T07:37:32;95027.81;;;9.30
30001;BMP280;16845;48.670;9.000;2023-11-21T07:39:58;95030.13;;;9.37
30001;BMP280;16845;48.670;9.000;2023-11-21T07:42:25;95038.34;;;9.15
30001;BMP280;16845;48.670;9.000;2023-11-21T07:44:51;95043.06;;;9.24
30001;BMP280;16845;48.670;9.000;2023-11-21T07:47:18;95039.50;;;9.31
30001;BMP280;16845;48.670;9.000;2023-11-21T07:49:46;95043.09;;;9.48
30001;BMP280;16845;48.670;9.000;2023-11-21T07:52:13;95048.69;;;9.30
30001;BMP280;16845;48.670;9.000;2023-11-21T07:54:39;95045.34;;;9.56
30001;BMP280;16845;48.670;9.000;2023-11-21T07:57:06;95043.19;;;9.45
30001;BMP280;16845;48.670;9.000;2023-11-21T07:59:32;95042.72;;;9.60
30001;BMP280;16845;48.670;9.000;2023-11-21T08:01:58;95053.94;;;9.49
30001;BMP280;16845;48.670;9.000;2023-11-21T08:04:25;95048.72;;;9.55
30001;BMP280;16845;48.670;9.000;2023-11-21T08:06:53;95048.72;;;9.55
30001;BMP280;16845;48.670;9.000;2023-11-21T08:09:20;95054.69;;;9.51
30001;BMP280;16845;48.670;9.000;2023-11-21T08:11:46;95061.31;;;9.78
30001;BMP280;16845;48.670;9.000;2023-11-21T08:14:13;95047.19;;;9.75
30001;BMP280;16845;48.670;9.000;2023-11-21T08:16:40;95057.31;;;9.97
30001;BMP280;16845;48.670;9.000;2023-11-21T08:19:06;95052.09;;;9.78
30001;BMP280;16845;48.670;9.000;2023-11-21T08:21:33;95059.56;;;9.80
30001;BMP280;16845;48.670;9.000;2023-11-21T08:24:00;95056.09;;;9.84
30001;BMP280;16845;48.670;9.000;2023-11-21T08:26:27;95055.81;;;9.91
30001;BMP280;16845;48.670;9.000;2023-11-21T08:28:53;95056.47;;;10.22
30001;BMP280;16845;48.670;9.000;2023-11-21T08:31:24;95055.84;;;10.16
30001;BMP280;16845;48.670;9.000;2023-11-21T08:33:51;95055.66;;;10.45
30001;BMP280;16845;48.670;9.000;2023-11-21T08:36:17;95058.81;;;10.27
30001;BMP280;16845;48.670;9.000;2023-11-21T08:38:44;95052.72;;;10.34
30001;BMP280;16845;48.670;9.000;2023-11-21T08:41:12;95060.31;;;10.54
30001;BMP280;16845;48.670;9.000;2023-11-21T08:43:38;95063.69;;;10.76
30001;BMP280;16845;48.670;9.000;2023-11-21T08:46:05;95069.81;;;10.69
30001;BMP280;16845;48.670;9.000;2023-11-21T08:48:32;95068.34;;;11.08
30001;BMP280;16845;48.670;9.000;2023-11-21T08:50:58;95062.78;;;11.00
30001;BMP280;16845;48.670;9.000;2023-11-21T08:53:25;95059.16;;;11.07
30001;BMP280;16845;48.670;9.000;2023-11-21T08:55:51;95063.91;;;10.93
30001;BMP280;16845;48.670;9.000;2023-11-21T08:58:19;95070.59;;;10.92
30001;BMP280;16845;48.670;9.000;2023-11-21T09:00:46;95075.41;;;10.98
30001;BMP280;16845;48.670;9.000;2023-11-21T09:03:12;95085.34;;;10.78
30001;BMP280;16845;48.670;9.000;2023-11-21T09:05:39;95082.56;;;10.86
30001;BMP280;16845;48.670;9.000;2023-11-21T09:08:06;95087.16;;;10.75
30001;BMP280;16845;48.670;9.000;2023-11-21T09:10:33;95087.88;;;10.78
30001;BMP280;16845;48.670;9.000;2023-11-21T09:12:59;95081.75;;;11.07
30001;BMP280;16845;48.670;9.000;2023-11-21T09:15:27;95085.28;;;11.03
30001;BMP280;16845;48.670;9.000;2023-11-21T09:17:54;95082.31;;;11.15
30001;BMP280;16845;48.670;9.000;2023-11-21T09:20:20;95084.22;;;11.30
30001;BMP280;16845;48.670;9.000;2023-11-21T09:22:47;95088.41;;;11.51
30001;BMP280;16845;48.670;9.000;2023-11-21T09:25:13;95087.59;;;11.72
30001;BMP280;16845;48.670;9.000;2023-11-21T09:27:40;95090.16;;;11.49
30001;BMP280;16845;48.670;9.000;2023-11-21T09:30:07;95096.38;;;11.62
30001;BMP280;16845;48.670;9.000;2023-11-21T09:32:35;95091.91;;;11.47
30001;BMP280;16845;48.670;9.000;2023-11-21T09:35:02;95089.22;;;11.73
30001;BMP280;16845;48.670;9.000;2023-11-21T09:37:29;95096.78;;;11.92
30001;BMP280;16845;48.670;9.000;2023-11-21T09:39:56;95098.81;;;12.04
30001;BMP280;16845;48.670;9.000;2023-11-21T09:42:25;95095.84;;;12.15
30001;BMP280;16845;48.670;9.000;2023-11-21T09:44:58;95109.03;;;12.20
30001;BMP280;16845;48.670;9.000;2023-11-21T09:47:29;95099.94;;;12.17
30001;BMP280;16845;48.670;9.000;2023-11-21T09:50:00;95105.47;;;12.05
30001;BMP280;16845;48.670;9.000;2023-11-21T09:52:28;95113.09;;;12.02
30001;BMP280;16845;48.670;9.000;2023-11-21T09:54:55;95109.06;;;11.78
30001;BMP280;16845;48.670;9.000;2023-11-21T09:57:23;95113.22;;;11.60
30001;BMP280;16845;48.670;9.000;2023-11-21T09:59:49;95108.91;;;11.19
30001;BMP280;16845;48.670;9.000;2023-11-21T10:02:17;95117.13;;;11.01
30001;BMP280;16845;48.670;9.000;2023-11-21T10:04:44;95114.09;;;10.93
30001;BMP280;16845;48.670;9.000;2023-11-21T10:07:13;95116.19;;;10.82
30001;BMP280;16845;48.670;9.000;2023-11-21T10:09:42;95112.78;;;10.83
30001;BMP280;16845;48.670;9.000;2023-11-21T10:12:09;95112.78;;;10.83
30001;BMP280;16845;48.670;9.000;2023-11-21T10:14:40;95118.25;;;10.71
30001;BMP280;16845;48.670;9.000;2023-11-21T10:17:08;95117.84;;;10.81
30001;BMP280;16845;48.670;9.000;2023-11-21T10:19:36;95116.81;;;10.87
30001;BMP280;16845;48.670;9.000;2023-11-21T10:22:03;95127.97;;;10.80
30001;BMP280;16845;48.670;9.000;2023-11-21T10:24:31;95117.47;;;10.92
30001;BMP280;16845;48.670;9.000;2023-11-21T10:27:14;95121.31;;;10.79
30001;BMP280;16845;48.670;9.000;2023-11-21T10:29:40;95118.94;;;10.97
30001;BMP280;16845;48.670;9.000;2023-11-21T10:32:07;95120.41;;;11.03
30001;BMP280;16845;48.670;9.000;2023-11-21T10:34:33;95119.31;;;10.87
30001;BMP280;16845;48.670;9.000;2023-11-21T10:37:11;95120.59;;;10.98
30001;BMP280;16845;48.670;9.000;2023-11-21T10:39:39;95126.91;;;11.08
30001;BMP280;16845;48.670;9.000;2023-11-21T10:42:08;95125.06;;;11.12
30001;BMP280;16845;48.670;9.000;2023-11-21T10:44:35;95127.50;;;11.15
30001;BMP280;16845;48.670;9.000;2023-11-21T10:47:02;95123.44;;;11.11
30001;BMP280;16845;48.670;9.000;2023-11-21T10:49:28;95137.53;;;11.15
30001;BMP280;16845;48.670;9.000;2023-11-21T10:51:56;95133.31;;;10.94
30001;BMP280;16845;48.670;9.000;2023-11-21T10:54:23;95129.25;;;10.90
30001;BMP280;16845;48.670;9.000;2023-11-21T10:56:54;95129.41;;;11.08
30001;BMP280;16845;48.670;9.000;2023-11-21T10:59:23;95128.81;;;11.02
30001;BMP280;16845;48.670;9.000;2023-11-21T11:01:50;95134.19;;;11.14
30001;BMP280;16845;48.670;9.000;2023-11-21T11:04:18;95127.53;;;11.13
30001;BMP280;16845;48.670;9.000;2023-11-21T11:06:50;95123.28;;;11.15
30001;BMP280;16845;48.670;9.000;2023-11-21T11:09:17;95124.75;;;11.21
30001;BMP280;16845;48.670;9.000;2023-11-21T11:11:44;95126.78;;;11.33
30001;BMP280;16845;48.670;9.000;2023-11-21T11:14:13;95123.19;;;11.40
30001;BMP280;16845;48.670;9.000;2023-11-21T11:16:41;95120.47;;;11.23
30001;BMP280;16845;48.670;9.000;2023-11-21T11:19:07;95126.69;;;11.36
30001;BMP280;16845;48.670;9.000;2023-11-21T11:21:45;95129.53;;;11.48
30001;BMP280;16845;48.670;9.000;2023-11-21T11:24:32;95127.56;;;11.77
30001;BMP280;16845;48.670;9.000;2023-11-21T11:27:06;95133.97;;;11.84
30001;BMP280;16845;48.670;9.000;2023-11-21T11:29:41;95130.19;;;11.74
30001;BMP280;16845;48.670;9.000;2023-11-21T11:32:16;95129.31;;;11.54
30001;BMP280;16845;48.670;9.000;2023-11-21T11:34:46;95131.56;;;11.62
30001;BMP280;16845;48.670;9.000;2023-11-21T11:37:14;95128.59;;;11.51
30001;BMP280;16845;48.670;9.000;2023-11-21T11:39:42;95136.38;;;11.45
30001;BMP280;16845;48.670;9.000;2023-11-21T11:42:12;95132.47;;;11.38
30001;BMP280;16845;48.670;9.000;2023-11-21T11:44:52;95133.84;;;11.45
30001;BMP280;16845;48.670;9.000;2023-11-21T11:47:21;95143.31;;;11.38
30001;BMP280;16845;48.670;9.000;2023-11-21T11:49:58;95136.22;;;11.71
30001;BMP280;16845;48.670;9.000;2023-11-21T11:52:37;95142.16;;;11.89
30001;BMP280;16845;48.670;9.000;2023-11-21T11:55:06;95138.91;;;11.66
30001;BMP280;16845;48.670;9.000;2023-11-21T11:57:34;95142.22;;;11.67
30001;BMP280;16845;48.670;9.000;2023-11-21T12:00:10;95135.34;;;11.72
30001;BMP280;16845;48.670;9.000;2023-11-21T12:02:37;95133.84;;;11.45
30001;BMP280;16845;48.670;9.000;2023-11-21T12:05:08;95143.22;;;11.41
30001;BMP280;16845;48.670;9.000;2023-11-21T12:07:47;95136.63;;;11.39
30001;BMP280;16845;48.670;9.000;2023-11-21T12:10:14;95141.09;;;11.31
30001;BMP280;16845;48.670;9.000;2023-11-21T12:12:42;95144.28;;;11.36
30001;BMP280;16845;48.670;9.000;2023-11-21T12:15:10;95148.97;;;11.22
30001;BMP280;16845;48.670;9.000;2023-11-21T12:17:37;95147.97;;;11.04
30001;BMP280;16845;48.670;9.000;2023-11-21T12:20:05;95147.88;;;11.07
30001;BMP280;16845;48.670;9.000;2023-11-21T12:22:32;95149.72;;;11.02
30001;BMP280;16845;48.670;9.000;2023-11-21T12:24:59;95151.31;;;11.05
30001;BMP280;16845;48.670;9.000;2023-11-21T12:27:27;95153.97;;;10.77
30001;BMP280;16845;48.670;9.000;2023-11-21T12:29:53;95153.25;;;11.20
30001;BMP280;16845;48.670;9.000;2023-11-21T12:32:22;95159.69;;;11.27
30001;BMP280;16845;48.670;9.000;2023-11-21T12:34:49;95154.91;;;11.42
30001;BMP280;16845;48.670;9.000;2023-11-21T12:37:15;95156.94;;;11.54
30001;BMP280;16845;48.670;9.000;2023-11-21T12:39:42;95157.22;;;11.47
30001;BMP280;16845;48.670;9.000;2023-11-21T12:42:09;95162.91;;;11.73
30001;BMP280;16845;48.670;9.000;2023-11-21T12:44:35;95162.72;;;11.99
30001;BMP280;16845;48.670;9.000;2023-11-21T12:47:02;95166.88;;;12.00
30001;BMP280;16845;48.670;9.000;2023-11-21T12:49:30;95161.66;;;10.96
30001;BMP280;16845;48.670;9.000;2023-11-21T12:51:57;95168.63;;;10.65
30001;BMP280;16845;48.670;9.000;2023-11-21T12:54:23;95168.31;;;11.20
30001;BMP280;16845;48.670;9.000;2023-11-21T12:56:50;95170.25;;;11.35
30001;BMP280;16845;48.670;9.000;2023-11-21T12:59:16;95162.28;;;11.68
30001;BMP280;16845;48.670;9.000;2023-11-21T13:01:43;95175.28;;;10.66
30001;BMP280;16845;48.670;9.000;2023-11-21T13:04:09;95175.16;;;11.38
30001;BMP280;16845;48.670;9.000;2023-11-21T13:06:37;95169.88;;;11.88
30001;BMP280;16845;48.670;9.000;2023-11-21T13:09:04;95172.94;;;11.30
30001;BMP280;16845;48.670;9.000;2023-11-21T13:11:34;95170.47;;;11.50
30001;BMP280;16845;48.670;9.000;2023-11-21T13:14:01;95164.75;;;11.47
30001;BMP280;16845;48.670;9.000;2023-11-21T13:16:28;95173.47;;;12.02
30001;BMP280;16845;48.670;9.000;2023-11-21T13:18:55;95170.09;;;12.23
30001;BMP280;16845;48.670;9.000;2023-11-21T13:21:21;95167.47;;;12.26
30001;BMP280;16845;48.670;9.000;2023-11-21T13:23:49;95174.78;;;11.91
30001;BMP280;16845;48.670;9.000;2023-11-21T13:26:16;95167.56;;;12.23
30001;BMP280;16845;48.670;9.000;2023-11-21T13:28:42;95166.88;;;12.20
30001;BMP280;16845;48.670;9.000;2023-11-21T13:31:09;95175.72;;;11.67
30001;BMP280;16845;48.670;9.000;2023-11-21T13:33:37;95184.09;;;11.45
30001;BMP280;16845;48.670;9.000;2023-11-21T13:36:05;95188.25;;;11.46
30001;BMP280;16845;48.670;9.000;2023-11-21T13:38:31;95183.66;;;11.57
30001;BMP280;16845;48.670;9.000;2023-11-21T13:40:59;95192.03;;;11.34
30001;BMP280;16845;48.670;9.000;2023-11-21T13:43:26;95194.25;;;11.20
30001;BMP280;16845;48.670;9.000;2023-11-21T13:45:53;95188.84;;;11.08
30001;BMP280;16845;48.670;9.000;2023-11-21T13:48:19;95192.09;;;11.10
30001;BMP280;16845;48.670;9.000;2023-11-21T13:50:46;95196.94;;;11.16
30001;BMP280;16845;48.670;9.000;2023-11-21T13:53:12;95204.63;;;10.88
30001;BMP280;16845;48.670;9.000;2023-11-21T13:55:39;95215.19;;;9.97
30001;BMP280;16845;48.670;9.000;2023-11-21T13:58:07;95220.97;;;9.99
30001;BMP280;16845;48.670;9.000;2023-11-21T14:00:33;95228.72;;;10.19
30001;BMP280;16845;48.670;9.000;2023-11-21T14:03:00;95230.59;;;9.86
30001;BMP280;16845;48.670;9.000;2023-11-21T14:05:27;95231.91;;;10.24
30001;BMP280;16845;48.670;9.000;2023-11-21T14:07:54;95235.75;;;10.08
30001;BMP280;16845;48.670;9.000;2023-11-21T14:10:20;95245.06;;;10.30
30001;BMP280;16845;48.670;9.000;2023-11-21T14:12:47;95241.81;;;10.53
30001;BMP280;16845;48.670;9.000;2023-11-21T14:15:14;95240.97;;;10.28
30001;BMP280;16845;48.670;9.000;2023-11-21T14:17:41;95244.81;;;10.38